Old Lyme, Connecticut
Current Conditions -  °F | °C
As of 7:55 PM on Saturday 22 Nov 2014 (Local Time) from KSNC Reporting Station
Overcast Overcast  
Wind Chill: 37°   Ceiling: 3700
Heat Index: 43°   Visibility: 10mi
Dew Point: 23°   Wind: 12mph
Humidity: 46%   Direction: 230°SW
Pressure: 30.18"   Gusts: 21mph
Location:  41.32°N, 72.33°W
Report Text: KSNC 230055Z AUTO 23010G18KT 010V020 10SM BKN037 OVC047 06/M05 A3018 RMK AO2
Loading
Personal Weather Stations






























Interactive Weather Map New forecast layout! Learn more

10-Day Weather Forecast

Advertisements
Track Severe Weather on mobile